Time;durP1;ratioP1;P1;durP2;ratioP2;P2;SDS_P1;SDS_P2;PMS_P1;PMS_P2;Temp;Humidity;BMP_temperature;BMP_pressure;BME280_temperature;BME280_humidity;BME280_pressure;Samples;Min_cycle;Max_cycle;Signal;HPM_P1;HPM_P2
2023/06/08 00:00:01;;;;;;;15.10;10.90;;;;;;;10.34;100.00;100843.31;5002187;28;20095;-83
2023/06/08 00:02:28;;;;;;;16.65;12.48;;;;;;;10.32;100.00;100834.69;5009629;28;20053;-82
2023/06/08 00:04:54;;;;;;;19.92;11.63;;;;;;;10.35;100.00;100824.69;5024970;28;20035;-83
2023/06/08 00:07:21;;;;;;;11.38;10.10;;;;;;;10.37;100.00;100827.19;5005435;28;20034;-83
2023/06/08 00:09:48;;;;;;;14.18;10.50;;;;;;;10.38;100.00;100826.25;4992940;28;20076;-82
2023/06/08 00:12:14;;;;;;;13.43;10.88;;;;;;;10.38;100.00;100821.78;5009984;28;20030;-83
2023/06/08 00:14:40;;;;;;;13.68;11.75;;;;;;;10.40;100.00;100824.31;5026923;28;20119;-83
2023/06/08 00:17:08;;;;;;;17.42;11.85;;;;;;;10.40;100.00;100821.66;4995340;28;20037;-81
2023/06/08 00:19:36;;;;;;;14.00;10.52;;;;;;;10.37;100.00;100828.03;4989907;28;20038;-82
2023/06/08 00:22:07;;;;;;;21.30;11.27;;;;;;;10.32;100.00;100827.59;5004908;28;20438;-83
2023/06/08 00:24:36;;;;;;;14.10;10.68;;;;;;;10.28;100.00;100819.13;4992170;28;20052;-82
2023/06/08 00:27:06;;;;;;;18.05;10.95;;;;;;;10.24;100.00;100825.63;4995434;28;20158;-82
2023/06/08 00:29:33;;;;;;;18.30;11.45;;;;;;;10.17;100.00;100813.91;5026662;28;20400;-83
2023/06/08 00:31:59;;;;;;;16.13;11.50;;;;;;;10.17;100.00;100813.91;5042842;28;20037;-82
2023/06/08 00:34:27;;;;;;;13.23;10.95;;;;;;;10.25;100.00;100816.75;5010040;28;20038;-82
2023/06/08 00:36:55;;;;;;;18.52;11.65;;;;;;;10.25;100.00;100822.03;5010949;28;20049;-82
2023/06/08 00:39:22;;;;;;;13.70;10.73;;;;;;;10.30;100.00;100827.72;4969792;28;20034;-83
2023/06/08 00:41:48;;;;;;;15.98;10.85;;;;;;;10.27;100.00;100816.59;4975511;28;20037;-83
2023/06/08 00:44:14;;;;;;;18.98;10.80;;;;;;;10.26;100.00;100822.84;5026247;28;20039;-82
2023/06/08 00:46:40;;;;;;;12.27;9.57;;;;;;;10.23;100.00;100817.81;5010746;28;20057;-83
2023/06/08 00:49:11;;;;;;;15.30;11.10;;;;;;;10.26;100.00;100815.75;4983536;28;20030;-83
2023/06/08 00:51:41;;;;;;;12.40;10.05;;;;;;;10.31;100.00;100820.66;4977422;28;20110;-82
2023/06/08 00:54:10;;;;;;;18.58;10.90;;;;;;;10.28;100.00;100811.19;4991483;28;20034;-83
2023/06/08 00:56:38;;;;;;;18.90;10.73;;;;;;;10.35;100.00;100813.28;5017916;28;20033;-83
2023/06/08 00:59:05;;;;;;;12.10;10.75;;;;;;;10.37;100.00;100804.25;4994632;28;20034;-82
2023/06/08 01:01:32;;;;;;;15.15;11.05;;;;;;;10.39;100.00;100804.97;5010373;28;20091;-82
2023/06/08 01:04:07;;;;;;;15.15;11.02;;;;;;;10.43;100.00;100806.34;5027301;28;20041;-80
2023/06/08 01:06:45;;;;;;;13.20;10.82;;;;;;;10.45;100.00;100810.69;4996307;28;20033;-82
2023/06/08 01:09:38;;;;;;;15.00;10.95;;;;;;;10.49;100.00;100810.31;4980929;28;20029;-82
2023/06/08 01:12:23;;;;;;;20.25;11.25;;;;;;;10.49;100.00;100806.81;4993760;28;20059;-83
2023/06/08 01:14:58;;;;;;;16.95;11.65;;;;;;;10.38;100.00;100800.63;5005610;28;20029;-83
2023/06/08 01:17:35;;;;;;;19.20;10.43;;;;;;;10.30;100.00;100800.50;4989896;28;20049;-83
2023/06/08 01:20:38;;;;;;;16.40;11.32;;;;;;;10.25;100.00;100803.53;5028257;28;20484;-83
2023/06/08 01:23:16;;;;;;;12.50;10.75;;;;;;;10.20;100.00;100795.16;5024278;28;20034;-83
2023/06/08 01:25:43;;;;;;;11.48;9.80;;;;;;;10.13;100.00;100802.78;4991819;28;20040;-83
2023/06/08 01:28:15;;;;;;;14.05;10.27;;;;;;;10.09;100.00;100796.09;5014346;28;20064;-82
2023/06/08 01:30:46;;;;;;;13.98;10.85;;;;;;;10.12;100.00;100797.63;4995454;28;20025;-83
2023/06/08 01:33:16;;;;;;;13.35;9.93;;;;;;;10.14;100.00;100798.34;5007645;28;20091;-82
2023/06/08 01:35:46;;;;;;;13.68;10.85;;;;;;;10.18;100.00;100791.81;4999851;28;20399;-83
2023/06/08 01:38:23;;;;;;;15.60;11.18;;;;;;;10.25;100.00;100792.97;5014433;28;20098;-83
2023/06/08 01:40:56;;;;;;;15.70;10.30;;;;;;;10.30;100.00;100787.28;5016373;28;20091;-83
2023/06/08 01:43:24;;;;;;;16.58;10.60;;;;;;;10.33;100.00;100784.38;4981446;28;20124;-82
2023/06/08 01:45:54;;;;;;;27.20;10.90;;;;;;;10.36;100.00;100788.53;5013512;28;20029;-82
2023/06/08 01:48:23;;;;;;;23.85;11.43;;;;;;;10.34;100.00;100790.47;5012292;28;20038;-82
2023/06/08 01:50:51;;;;;;;28.20;11.75;;;;;;;10.25;100.00;100785.03;5030282;28;20048;-83
2023/06/08 01:53:17;;;;;;;23.63;10.90;;;;;;;10.18;100.00;100784.72;5015214;28;20029;-82
2023/06/08 01:55:43;;;;;;;25.52;10.90;;;;;;;10.14;100.00;100785.13;5013140;28;20034;-83
2023/06/08 01:58:09;;;;;;;15.60;11.60;;;;;;;10.10;100.00;100786.34;5013591;28;20087;-82
2023/06/08 02:00:35;;;;;;;16.42;11.15;;;;;;;10.12;100.00;100790.53;5018799;28;20033;-82
2023/06/08 02:03:01;;;;;;;16.35;11.10;;;;;;;10.10;100.00;100786.34;4996920;28;20048;-82
2023/06/08 02:05:27;;;;;;;14.98;11.00;;;;;;;10.09;100.00;100782.03;5013602;28;20376;-82
2023/06/08 02:07:53;;;;;;;12.93;10.35;;;;;;;10.16;100.00;100791.13;5023061;28;20579;-82
2023/06/08 02:10:19;;;;;;;16.33;11.02;;;;;;;10.23;100.00;100786.13;5012181;28;20083;-83
2023/06/08 02:12:45;;;;;;;12.82;10.50;;;;;;;10.29;100.00;100782.94;5002526;28;20052;-82
2023/06/08 02:15:11;;;;;;;15.30;9.93;;;;;;;10.34;100.00;100780.75;5001860;28;20152;-83
2023/06/08 02:17:37;;;;;;;15.93;10.43;;;;;;;10.40;100.00;100782.84;4997388;28;20048;-83
2023/06/08 02:20:07;;;;;;;13.98;11.05;;;;;;;10.43;100.00;100774.66;5013210;28;20708;-83
2023/06/08 02:22:37;;;;;;;11.55;10.13;;;;;;;10.50;100.00;100782.91;5018593;28;20064;-82
2023/06/08 02:25:09;;;;;;;14.55;10.40;;;;;;;10.54;100.00;100773.72;5028244;28;20045;-83
2023/06/08 02:27:38;;;;;;;14.45;10.40;;;;;;;10.59;100.00;100775.16;5007732;28;20109;-84
2023/06/08 02:30:07;;;;;;;14.38;10.15;;;;;;;10.64;100.00;100775.53;5001204;28;20026;-83
2023/06/08 02:32:32;;;;;;;11.30;9.85;;;;;;;10.65;100.00;100770.13;5011480;28;20116;-82
2023/06/08 02:35:00;;;;;;;14.32;10.50;;;;;;;10.67;100.00;100760.25;4996273;28;20040;-83
2023/06/08 02:37:27;;;;;;;16.92;9.68;;;;;;;10.68;100.00;100763.75;5013351;28;20411;-83
2023/06/08 02:39:53;;;;;;;13.05;9.13;;;;;;;10.69;100.00;100762.75;5009452;28;20041;-83
2023/06/08 02:42:19;;;;;;;14.98;10.05;;;;;;;10.68;100.00;100758.47;5011787;28;20112;-83
2023/06/08 02:44:45;;;;;;;16.33;11.20;;;;;;;10.66;100.00;100765.69;4996331;28;20043;-80
2023/06/08 02:47:17;;;;;;;14.68;10.38;;;;;;;10.71;100.00;100760.81;5010549;28;20044;-80
2023/06/08 02:49:43;;;;;;;12.77;9.50;;;;;;;10.68;100.00;100761.09;5011260;28;20052;-83
2023/06/08 02:52:09;;;;;;;14.52;10.18;;;;;;;10.66;100.00;100755.09;4991883;28;20048;-82
2023/06/08 02:54:36;;;;;;;13.32;9.73;;;;;;;10.64;100.00;100755.25;5023335;28;20042;-82
2023/06/08 02:57:02;;;;;;;17.27;9.63;;;;;;;10.55;100.00;100748.13;5012449;28;20033;-82
2023/06/08 02:59:31;;;;;;;16.42;9.93;;;;;;;10.43;100.00;100747.41;5013666;28;20034;-83
2023/06/08 03:01:58;;;;;;;14.18;8.68;;;;;;;10.36;100.00;100744.47;4992947;28;20036;-82
2023/06/08 03:04:29;;;;;;;14.27;9.23;;;;;;;10.25;100.00;100748.06;5010409;28;20076;-83
2023/06/08 03:06:59;;;;;;;10.85;9.40;;;;;;;10.18;100.00;100741.63;5017510;28;20025;-83
2023/06/08 03:09:28;;;;;;;12.02;9.85;;;;;;;10.15;100.00;100736.59;4994586;28;20088;-82
2023/06/08 03:12:00;;;;;;;18.20;10.52;;;;;;;10.16;100.00;100743.56;4996061;28;20128;-83
2023/06/08 03:14:28;;;;;;;12.18;9.68;;;;;;;10.09;100.00;100740.63;5011044;28;20466;-82
2023/06/08 03:16:57;;;;;;;14.75;9.82;;;;;;;10.09;100.00;100738.00;4996934;28;20026;-82
2023/06/08 03:19:25;;;;;;;12.52;10.10;;;;;;;10.06;100.00;100738.25;5027980;28;20503;-82
2023/06/08 03:21:51;;;;;;;17.30;9.70;;;;;;;10.04;100.00;100746.31;5011859;28;20033;-82
2023/06/08 03:24:20;;;;;;;14.70;9.85;;;;;;;10.03;100.00;100741.97;5012286;28;20538;-82
2023/06/08 03:26:46;;;;;;;13.93;9.68;;;;;;;10.04;100.00;100745.47;5018954;28;20079;-82
2023/06/08 03:29:15;;;;;;;17.00;10.48;;;;;;;10.03;100.00;100744.63;4996017;28;20110;-83
2023/06/08 03:31:41;;;;;;;12.27;10.73;;;;;;;10.01;100.00;100743.09;5012982;28;20044;-79
2023/06/08 03:34:16;;;;;;;14.35;10.20;;;;;;;10.03;100.00;100744.63;4986854;28;20034;-79
2023/06/08 03:36:43;;;;;;;12.82;9.98;;;;;;;10.06;100.00;100740.91;5010632;28;20042;-83
2023/06/08 03:39:17;;;;;;;14.45;9.85;;;;;;;10.03;100.00;100744.63;5007803;28;20089;-83
2023/06/08 03:41:43;;;;;;;17.75;10.18;;;;;;;10.02;100.00;100740.31;4995249;28;20041;-83
2023/06/08 03:44:11;;;;;;;16.80;10.85;;;;;;;10.01;100.00;100736.03;5004019;28;20038;-83
2023/06/08 03:46:37;;;;;;;16.63;10.40;;;;;;;9.95;100.00;100733.91;5002704;28;20048;-83
2023/06/08 03:49:04;;;;;;;16.27;11.20;;;;;;;9.92;100.00;100735.00;5008226;28;20509;-84
2023/06/08 03:51:31;;;;;;;17.77;11.60;;;;;;;9.92;100.00;100734.19;5014464;28;20187;-84
2023/06/08 03:53:56;;;;;;;15.10;11.98;;;;;;;9.97;100.00;100737.22;5007627;28;20037;-83
2023/06/08 03:56:22;;;;;;;14.90;10.98;;;;;;;9.94;100.00;100737.50;4995985;28;20109;-83
2023/06/08 03:58:51;;;;;;;16.27;11.45;;;;;;;9.92;100.00;100732.34;5010416;28;20126;-83
2023/06/08 04:01:17;;;;;;;16.35;12.32;;;;;;;9.91;100.00;100735.97;5027937;28;20044;-82
2023/06/08 04:03:43;;;;;;;15.35;11.93;;;;;;;9.90;100.00;100741.38;5012043;28;20044;-83
2023/06/08 04:06:09;;;;;;;15.80;12.90;;;;;;;9.89;100.00;100732.63;5023890;28;20064;-83
2023/06/08 04:08:40;;;;;;;17.55;13.10;;;;;;;9.92;100.00;100732.34;4990263;28;20084;-83
2023/06/08 04:11:08;;;;;;;15.30;12.90;;;;;;;9.91;100.00;100733.34;4990606;28;20037;-80
2023/06/08 04:13:36;;;;;;;20.63;13.70;;;;;;;9.86;100.00;100727.59;5009592;28;20038;-79
2023/06/08 04:16:08;;;;;;;22.80;13.25;;;;;;;9.89;100.00;100731.81;4989572;28;20439;-82
2023/06/08 04:18:36;;;;;;;21.70;13.88;;;;;;;9.88;100.00;100724.84;5025098;28;20100;-83
2023/06/08 04:21:05;;;;;;;25.77;14.73;;;;;;;9.86;100.00;100732.06;5008802;28;20090;-83
2023/06/08 04:23:33;;;;;;;19.95;14.27;;;;;;;9.88;100.00;100722.19;5010261;28;20406;-83
2023/06/08 04:26:03;;;;;;;21.08;13.93;;;;;;;9.93;100.00;100726.13;5020058;28;20042;-83
2023/06/08 04:28:30;;;;;;;19.83;13.85;;;;;;;9.88;100.00;100725.69;4994689;28;20104;-83
2023/06/08 04:30:58;;;;;;;23.08;14.88;;;;;;;9.91;100.00;100727.19;4994834;28;20069;-83
2023/06/08 04:33:26;;;;;;;25.50;13.93;;;;;;;9.94;100.00;100726.94;4992286;28;20080;-83
2023/06/08 04:35:53;;;;;;;21.15;14.10;;;;;;;10.01;100.00;100717.53;5025448;28;20037;-83
2023/06/08 04:38:20;;;;;;;21.40;15.10;;;;;;;10.07;100.00;100726.72;5010624;28;20045;-83
2023/06/08 04:40:53;;;;;;;24.60;14.30;;;;;;;10.21;100.00;100727.31;5009061;28;20037;-83
2023/06/08 04:43:31;;;;;;;24.95;14.45;;;;;;;10.23;100.00;100720.91;4977299;28;20038;-84
2023/06/08 04:46:04;;;;;;;21.25;13.10;;;;;;;10.28;100.00;100721.38;4994875;28;20044;-84
2023/06/08 04:48:33;;;;;;;22.55;14.40;;;;;;;10.34;100.00;100719.97;5011413;28;20049;-83
2023/06/08 04:51:02;;;;;;;22.48;13.30;;;;;;;10.39;100.00;100723.03;4994548;28;20041;-83
2023/06/08 04:53:30;;;;;;;21.73;14.35;;;;;;;10.36;100.00;100722.47;5009427;28;20049;-83
2023/06/08 04:55:57;;;;;;;21.42;14.10;;;;;;;10.39;100.00;100719.56;5009966;28;20033;-83
2023/06/08 04:58:25;;;;;;;21.67;14.10;;;;;;;10.45;100.00;100721.66;4995280;28;20271;-83
2023/06/08 05:00:52;;;;;;;22.10;15.00;;;;;;;10.45;100.00;100726.94;4992801;28;20037;-83
2023/06/08 05:03:22;;;;;;;22.13;13.93;;;;;;;10.46;100.00;100725.16;4999910;28;20064;-83
2023/06/08 05:05:48;;;;;;;24.10;14.07;;;;;;;10.46;100.00;100728.66;4977754;28;20041;-83
2023/06/08 05:08:15;;;;;;;24.00;14.68;;;;;;;10.47;100.00;100722.41;5025563;28;20047;-83
2023/06/08 05:10:41;;;;;;;21.58;14.52;;;;;;;10.50;100.00;100723.91;4997846;28;20029;-83
2023/06/08 05:13:06;;;;;;;21.02;13.82;;;;;;;10.56;100.00;100730.47;4983463;28;20087;-83
2023/06/08 05:15:32;;;;;;;27.85;14.60;;;;;;;10.59;100.00;100717.00;5013598;28;20083;-83
2023/06/08 05:17:59;;;;;;;28.77;13.95;;;;;;;10.62;100.00;100728.09;5022027;28;20068;-82
2023/06/08 05:20:26;;;;;;;20.00;12.88;;;;;;;10.62;100.00;100719.34;4996241;28;20029;-83
2023/06/08 05:22:53;;;;;;;24.20;14.00;;;;;;;10.61;100.00;100718.50;5010321;28;20095;-83
2023/06/08 05:25:19;;;;;;;30.90;13.85;;;;;;;10.61;100.00;100715.88;5027361;28;20083;-83
2023/06/08 05:27:45;;;;;;;19.98;14.50;;;;;;;10.62;100.00;100719.34;5032160;28;20762;-83
2023/06/08 05:30:12;;;;;;;27.00;14.18;;;;;;;10.63;100.00;100711.28;5013632;28;20037;-83
2023/06/08 05:32:38;;;;;;;16.80;13.63;;;;;;;10.66;100.00;100715.44;5014442;28;20033;-83
2023/06/08 05:35:04;;;;;;;22.02;14.43;;;;;;;10.70;100.00;100716.88;5024476;28;20052;-83
2023/06/08 05:37:30;;;;;;;21.45;12.18;;;;;;;10.71;100.00;100704.47;4997718;28;20468;-83
2023/06/08 05:39:57;;;;;;;26.38;13.88;;;;;;;10.75;100.00;100713.81;5030877;28;20030;-83
2023/06/08 05:42:23;;;;;;;20.23;12.13;;;;;;;10.82;100.00;100714.06;5005054;28;20574;-83
2023/06/08 05:44:50;;;;;;;23.30;13.52;;;;;;;10.89;100.00;100715.19;4999983;28;20033;-83
2023/06/08 05:47:16;;;;;;;19.88;12.85;;;;;;;10.95;100.00;100716.44;5013459;28;20446;-83
2023/06/08 05:49:41;;;;;;;25.67;12.70;;;;;;;11.00;100.00;100712.41;5030199;28;20022;-83
2023/06/08 05:52:07;;;;;;;25.77;14.18;;;;;;;11.04;100.00;100713.78;5015980;28;20030;-83
2023/06/08 05:54:33;;;;;;;22.73;12.68;;;;;;;11.16;100.00;100717.09;4994066;28;20037;-83
2023/06/08 05:57:00;;;;;;;21.95;13.63;;;;;;;11.25;100.00;100720.72;5030500;28;20040;-82
2023/06/08 05:59:26;;;;;;;20.58;12.30;;;;;;;11.35;100.00;100728.66;5018839;28;20068;-83
2023/06/08 06:01:53;;;;;;;23.00;12.70;;;;;;;11.32;100.00;100717.50;5029664;28;20661;-83
2023/06/08 06:04:19;;;;;;;19.48;12.10;;;;;;;11.34;100.00;100729.59;5031591;28;20036;-83
2023/06/08 06:06:45;;;;;;;17.35;12.00;;;;;;;11.29;100.00;100723.94;5017940;28;20029;-83
2023/06/08 06:09:14;;;;;;;21.67;13.45;;;;;;;11.30;100.00;100717.66;5027549;28;20108;-83
2023/06/08 06:11:39;;;;;;;20.67;12.77;;;;;;;11.37;100.00;100721.38;4997798;28;20411;-84
2023/06/08 06:14:05;;;;;;;20.00;12.35;;;;;;;11.45;100.00;100718.00;4982418;28;20044;-83
2023/06/08 06:16:31;;;;;;;22.33;13.02;;;;;;;11.55;100.00;100723.28;4996820;28;20037;-83
2023/06/08 06:18:58;;;;;;;23.25;12.88;;;;;;;11.63;100.00;100723.41;5014680;28;20107;-83
2023/06/08 06:21:24;;;;;;;20.10;12.82;;;;;;;11.65;100.00;100718.81;4982057;28;20037;-83
2023/06/08 06:23:50;;;;;;;21.65;12.45;;;;;;;11.68;100.00;100717.69;4996769;28;20514;-85
2023/06/08 06:26:16;;;;;;;23.13;11.90;;;;;;;11.78;100.00;100715.00;4998419;28;20572;-83
2023/06/08 06:28:42;;;;;;;23.17;12.85;;;;;;;11.93;100.00;100715.34;5024839;28;20021;-84
2023/06/08 06:31:07;;;;;;;19.45;11.93;;;;;;;11.98;100.00;100713.09;5016819;28;20026;-83
2023/06/08 06:33:33;;;;;;;26.35;12.38;;;;;;;12.06;100.00;100720.31;5014223;28;20052;-83
2023/06/08 06:35:59;;;;;;;22.00;12.23;;;;;;;12.18;100.00;100714.84;5016625;28;20056;-83
2023/06/08 06:38:26;;;;;;;25.58;12.63;;;;;;;12.21;100.00;100719.84;5013739;28;20111;-83
2023/06/08 06:40:52;;;;;;;23.48;11.48;;;;;;;12.27;100.00;100719.25;4995827;28;20065;-84
2023/06/08 06:43:22;;;;;;;19.08;10.80;;;;;;;12.46;100.00;100714.81;5014232;28;20055;-83
2023/06/08 06:46:02;;;;;;;25.85;11.68;;;;;;;12.44;100.00;100707.00;4998010;28;20587;-80
2023/06/08 06:48:28;;;;;;;20.33;10.40;;;;;;;12.52;100.00;100711.53;5017397;28;20542;-80
2023/06/08 06:50:54;;;;;;;22.73;10.02;;;;;;;12.56;100.00;100706.78;5015371;28;20112;-83
2023/06/08 06:53:19;;;;;;;27.08;10.40;;;;;;;12.57;100.00;100703.13;5008396;28;20041;-84
2023/06/08 06:55:45;;;;;;;17.63;10.07;;;;;;;12.61;100.00;100697.38;5002162;28;20072;-83
2023/06/08 06:58:12;;;;;;;20.73;9.52;;;;;;;12.67;100.00;100701.25;5017915;28;20033;-82
2023/06/08 07:00:39;;;;;;;16.48;9.48;;;;;;;12.72;100.00;100703.47;5015405;28;20037;-83
2023/06/08 07:03:05;;;;;;;14.70;8.80;;;;;;;12.81;100.00;100699.03;5019606;28;20038;-83
2023/06/08 07:05:31;;;;;;;27.83;9.50;;;;;;;12.84;100.00;100704.88;4989759;28;20044;-83
2023/06/08 07:07:57;;;;;;;23.15;9.30;;;;;;;12.94;100.00;100706.63;4977507;28;20104;-84
2023/06/08 07:10:23;;;;;;;17.38;9.45;;;;;;;13.05;100.00;100705.53;5024651;28;20037;-85
2023/06/08 07:12:49;;;;;;;21.30;9.45;;;;;;;13.12;100.00;100715.38;5003715;28;20049;-84
2023/06/08 07:15:15;;;;;;;19.15;8.80;;;;;;;13.19;100.00;100707.63;5023897;28;20036;-84
2023/06/08 07:17:42;;;;;;;19.63;8.57;;;;;;;13.34;100.00;100707.06;5019577;28;20037;-83
2023/06/08 07:20:08;;;;;;;23.90;9.30;;;;;;;13.56;100.00;100703.09;4991693;28;20136;-84
2023/06/08 07:22:34;;;;;;;12.90;7.72;;;;;;;13.85;100.00;100703.72;5029212;28;20430;-83
2023/06/08 07:25:00;;;;;;;15.80;8.20;;;;;;;14.05;100.00;100701.63;5027600;28;20038;-83
2023/06/08 07:27:25;;;;;;;17.08;8.88;;;;;;;14.12;100.00;100699.16;5032454;28;20120;-85
2023/06/08 07:29:52;;;;;;;18.80;7.97;;;;;;;14.24;100.00;100700.53;5005758;28;20029;-84
2023/06/08 07:32:18;;;;;;;16.98;8.13;;;;;;;14.39;100.00;100698.09;5005023;28;20029;-84
2023/06/08 07:34:44;;;;;;;18.42;8.63;;;;;;;14.54;100.00;100693.94;4998658;28;20117;-84
2023/06/08 07:37:09;;;;;;;15.30;7.15;;;;;;;14.73;100.00;100698.13;4999240;28;20140;-84
2023/06/08 07:39:35;;;;;;;17.80;7.35;;;;;;;14.81;100.00;100700.78;5012302;28;20045;-84
2023/06/08 07:42:03;;;;;;;19.63;8.00;;;;;;;14.97;100.00;100691.16;4993578;28;20061;-84
2023/06/08 07:44:29;;;;;;;15.20;6.65;;;;;;;15.12;100.00;100693.97;5022347;28;20026;-84
2023/06/08 07:46:55;;;;;;;12.70;7.40;;;;;;;15.11;100.00;100694.97;5006839;28;20029;-84
2023/06/08 07:49:21;;;;;;;14.32;6.82;;;;;;;15.01;100.00;100695.16;5005610;28;20040;-84
2023/06/08 07:51:47;;;;;;;13.45;5.82;;;;;;;14.98;100.00;100693.66;5005190;28;20044;-83
2023/06/08 07:54:13;;;;;;;15.10;7.28;;;;;;;14.91;100.00;100697.16;5026122;28;20488;-85
2023/06/08 07:56:39;;;;;;;16.67;6.50;;;;;;;14.88;100.00;100700.97;5021892;28;20033;-84
2023/06/08 07:59:05;;;;;;;17.80;6.78;;;;;;;15.01;100.00;100705.78;5039718;28;20104;-84
2023/06/08 08:01:31;;;;;;;16.45;7.00;;;;;;;15.12;100.00;100704.63;5003810;28;20483;-85
2023/06/08 08:03:57;;;;;;;18.35;7.60;;;;;;;15.30;100.00;100698.28;4989070;28;20030;-85
2023/06/08 08:06:22;;;;;;;12.85;6.97;;;;;;;15.42;100.00;100694.25;5024770;28;20088;-84
2023/06/08 08:08:48;;;;;;;13.10;7.45;;;;;;;15.47;100.00;100697.22;5025938;28;20029;-83
2023/06/08 08:11:14;;;;;;;10.93;6.57;;;;;;;15.50;100.00;100694.22;4990029;28;20503;-83
2023/06/08 08:13:40;;;;;;;12.25;7.35;;;;;;;15.34;100.00;100689.78;5007271;28;20347;-84
2023/06/08 08:16:06;;;;;;;11.82;7.10;;;;;;;15.33;100.00;100688.13;4992117;28;20068;-85
2023/06/08 08:18:32;;;;;;;17.27;7.35;;;;;;;15.46;100.00;100690.25;5006985;28;20054;-84
2023/06/08 08:20:57;;;;;;;15.88;6.82;;;;;;;15.48;100.00;100684.75;5023414;28;20037;-85
2023/06/08 08:23:23;;;;;;;18.48;7.22;;;;;;;15.50;100.00;100693.38;4995154;28;20696;-85
2023/06/08 08:25:49;;;;;;;13.90;6.22;;;;;;;15.57;100.00;100693.53;5002302;28;20029;-80
2023/06/08 08:28:15;;;;;;;21.23;7.28;;;;;;;15.66;100.00;100681.84;4978077;28;20119;-80
2023/06/08 08:30:41;;;;;;;10.82;6.25;;;;;;;15.65;100.00;100687.34;5013562;28;20061;-83
2023/06/08 08:33:07;;;;;;;16.52;6.70;;;;;;;15.70;100.00;100680.50;5006723;28;20079;-83
2023/06/08 08:35:34;;;;;;;11.43;5.78;;;;;;;15.79;100.00;100683.13;5013822;28;20033;-84
2023/06/08 08:38:00;;;;;;;15.32;7.60;;;;;;;15.86;100.00;100684.94;5021892;28;20038;-83
2023/06/08 08:40:26;;;;;;;19.65;7.30;;;;;;;15.94;100.00;100681.38;5013023;28;20060;-83
2023/06/08 08:43:01;;;;;;;19.08;6.40;;;;;;;16.10;100.00;100682.38;5030195;28;20510;-84
2023/06/08 08:45:31;;;;;;;14.93;6.78;;;;;;;16.08;100.00;100682.53;5004280;28;20426;-81
2023/06/08 08:47:58;;;;;;;7.28;4.80;;;;;;;16.10;100.00;100672.50;5000441;28;20468;-82
2023/06/08 08:50:25;;;;;;;11.20;5.43;;;;;;;16.06;100.00;100670.38;5016969;28;20029;-84
2023/06/08 08:52:54;;;;;;;13.85;5.53;;;;;;;16.11;100.00;100679.53;5018756;28;20047;-85
2023/06/08 08:55:27;;;;;;;11.30;5.82;;;;;;;16.19;100.00;100680.47;4997421;28;20072;-83
2023/06/08 08:57:58;;;;;;;12.75;5.90;;;;;;;16.31;100.00;100668.38;5012854;28;20029;-83
2023/06/08 09:00:25;;;;;;;12.93;5.78;;;;;;;16.36;100.00;100670.53;5026512;28;20052;-84
2023/06/08 09:02:52;;;;;;;11.23;6.25;;;;;;;16.33;100.00;100670.88;5011114;28;20135;-84
2023/06/08 09:05:17;;;;;;;11.50;5.72;;;;;;;16.40;100.00;100671.00;5030409;28;20041;-85
2023/06/08 09:07:43;;;;;;;14.77;5.65;;;;;;;16.51;100.00;100667.94;5007633;28;20045;-84
2023/06/08 09:10:21;;;;;;;13.93;6.53;;;;;;;16.63;100.00;100673.66;5030138;28;20088;-85
2023/06/08 09:12:49;;;;;;;11.40;5.53;;;;;;;16.73;100.00;100673.44;5028016;28;20526;-84
2023/06/08 09:15:27;;;;;;;11.98;5.28;;;;;;;16.76;100.00;100675.72;5022604;28;20555;-85
2023/06/08 09:17:57;;;;;;;12.48;4.93;;;;;;;16.86;100.00;100668.31;5029441;28;20041;-84
2023/06/08 09:20:31;;;;;;;14.07;5.93;;;;;;;16.83;100.00;100670.50;5000042;28;20030;-84
2023/06/08 09:22:58;;;;;;;17.65;6.70;;;;;;;16.85;100.00;100669.31;4999328;28;20392;-84
2023/06/08 09:25:42;;;;;;;10.77;5.53;;;;;;;16.98;100.00;100671.38;5035604;28;20048;-83
2023/06/08 09:28:24;;;;;;;11.32;5.50;;;;;;;17.05;100.00;100667.97;5010594;28;20029;-84
2023/06/08 09:30:51;;;;;;;12.50;5.88;;;;;;;16.99;100.00;100669.53;4997260;28;20045;-82
2023/06/08 09:33:19;;;;;;;12.07;5.53;;;;;;;17.03;100.00;100667.31;4996801;28;20047;-85
2023/06/08 09:35:45;;;;;;;17.50;5.55;;;;;;;17.02;100.00;100649.63;5027995;28;20037;-83
2023/06/08 09:38:18;;;;;;;18.35;6.57;;;;;;;17.08;100.00;100659.63;5002912;28;20558;-85
2023/06/08 09:40:46;;;;;;;13.95;6.20;;;;;;;17.16;100.00;100662.22;5025593;28;20037;-80
2023/06/08 09:43:12;;;;;;;24.42;7.50;;;;;;;17.18;100.00;100657.53;5014419;28;20118;-80
2023/06/08 09:45:44;;;;;;;17.13;6.97;;;;;;;17.36;100.00;100657.16;5009938;28;20398;-80
2023/06/08 09:48:14;;;;;;;11.27;5.82;;;;;;;17.39;100.00;100658.63;4989268;28;20091;-80
2023/06/08 09:50:39;;;;;;;15.82;6.00;;;;;;;17.46;100.00;100659.56;5026361;28;20068;-83
2023/06/08 09:53:06;;;;;;;15.70;6.20;;;;;;;17.53;100.00;100650.78;5027745;28;20065;-83
2023/06/08 09:55:36;;;;;;;15.93;6.30;;;;;;;17.48;100.00;100654.03;5002313;28;20061;-84
2023/06/08 09:58:03;;;;;;;14.05;6.05;;;;;;;17.50;100.00;100659.19;4996812;28;20044;-85
2023/06/08 10:00:30;;;;;;;13.98;5.97;;;;;;;17.51;100.00;100647.47;5028936;28;20116;-86
2023/06/08 10:03:14;;;;;;;10.38;6.25;;;;;;;17.61;100.00;100646.16;4923728;28;20601;-84
2023/06/08 10:05:43;;;;;;;15.93;5.90;;;;;;;17.57;100.00;100649.41;5019306;28;20069;-85
2023/06/08 10:08:12;;;;;;;12.85;5.80;;;;;;;17.60;100.00;100644.53;5011336;28;20530;-84
2023/06/08 10:10:38;;;;;;;12.40;6.68;;;;;;;17.61;100.00;100634.66;5000945;28;20030;-81
2023/06/08 10:13:05;;;;;;;17.75;7.18;;;;;;;17.75;100.00;100634.81;5006639;28;20029;-80
2023/06/08 10:15:32;;;;;;;12.63;5.95;;;;;;;17.69;100.00;100637.25;4991149;28;20044;-84
2023/06/08 10:18:00;;;;;;;17.55;6.57;;;;;;;17.70;100.00;100630.88;5027543;28;20510;-85
2023/06/08 10:20:28;;;;;;;16.25;6.53;;;;;;;17.87;100.00;100627.16;5024798;28;20116;-83
2023/06/08 10:22:56;;;;;;;12.57;6.22;;;;;;;17.87;100.00;100632.50;5024542;28;20032;-85
2023/06/08 10:25:22;;;;;;;17.27;6.82;;;;;;;17.82;100.00;100625.03;5012694;28;20037;-84
2023/06/08 10:27:49;;;;;;;11.43;5.63;;;;;;;17.81;100.00;100629.56;4992258;28;20029;-84
2023/06/08 10:30:28;;;;;;;13.55;6.53;;;;;;;17.88;100.00;100628.81;4977372;28;20072;-85
2023/06/08 10:33:15;;;;;;;12.25;5.60;;;;;;;17.93;100.00;100629.06;4995559;28;20037;-85
2023/06/08 10:36:00;;;;;;;15.48;7.45;;;;;;;17.95;100.00;100627.84;5012294;28;20033;-86
2023/06/08 10:38:27;;;;;;;14.20;5.63;;;;;;;17.86;100.00;100618.28;5008318;28;20037;-86
2023/06/08 10:40:52;;;;;;;16.08;6.05;;;;;;;17.98;100.00;100613.28;4977573;28;20737;-85
2023/06/08 10:43:22;;;;;;;10.68;5.20;;;;;;;17.87;100.00;100617.25;5022941;28;20037;-84
2023/06/08 10:45:51;;;;;;;15.63;6.78;;;;;;;17.85;100.00;100619.31;4999101;28;20029;-85
2023/06/08 10:48:18;;;;;;;16.90;6.95;;;;;;;17.85;100.00;100616.66;5026244;28;20025;-85
2023/06/08 10:50:46;;;;;;;16.02;7.53;;;;;;;17.88;100.00;100618.94;4991736;28;20033;-85
2023/06/08 10:53:19;;;;;;;12.52;6.50;;;;;;;17.92;100.00;100614.03;4989395;28;20468;-85
2023/06/08 10:55:48;;;;;;;10.18;5.80;;;;;;;18.03;100.00;100615.41;5028267;28;20029;-82
2023/06/08 10:58:20;;;;;;;9.52;5.95;;;;;;;18.12;100.00;100614.28;4979529;28;20036;-82
2023/06/08 11:00:50;;;;;;;15.13;6.70;;;;;;;18.05;100.00;100608.84;4994690;28;20025;-86
2023/06/08 11:03:20;;;;;;;11.80;6.10;;;;;;;18.10;100.00;100603.75;4989016;28;20060;-85
2023/06/08 11:05:50;;;;;;;14.98;6.65;;;;;;;18.21;100.00;100598.94;5004330;28;20033;-82
2023/06/08 11:08:17;;;;;;;17.52;6.90;;;;;;;18.32;100.00;100601.09;4975635;28;20450;-82
2023/06/08 11:10:50;;;;;;;11.00;7.05;;;;;;;18.34;100.00;100599.06;5039817;28;20038;-84